N126PM KBOS-KPQI
Flight info
| Callsign | N126PM |
|---|---|
| Flight time | N/A |
| Altitude | 45000 |
| Route | LBSTA8 LBSTA ENE T295 PQI WUPUP |
| Aircraft | C750/M-SBDE3FGHRWXY/S |
Departure
| Time | 2026-04-29 02:27 |
|---|---|
| Airport | Boston Logan International Airport (KBOS) |
Arrival
| Time | N/A |
|---|---|
| Airport | Presque Isle International Airport (KPQI) |
| Time | Latitude | Longitude | Altitude | Speed | Heading |
|---|---|---|---|---|---|
| 2026-04-29 02:02 | 42.37453 | -71.02213 | 22 ft | 0 kts | 316° |
| 2026-04-29 02:16 | 42.37455 | -71.02216 | 22 ft | 0 kts | 316° |
| 2026-04-29 02:17 | 42.37469 | -71.02220 | 24 ft | 4 kts | 13° |
| 2026-04-29 02:17 | 42.37504 | -71.02184 | 22 ft | 5 kts | 48° |
| 2026-04-29 02:17 | 42.37517 | -71.02126 | 23 ft | 8 kts | 107° |
| 2026-04-29 02:17 | 42.37482 | -71.02065 | 22 ft | 9 kts | 136° |
| 2026-04-29 02:18 | 42.37429 | -71.02000 | 25 ft | 12 kts | 134° |
| 2026-04-29 02:18 | 42.37365 | -71.01916 | 22 ft | 14 kts | 137° |
| 2026-04-29 02:18 | 42.37288 | -71.01813 | 22 ft | 17 kts | 135° |
| 2026-04-29 02:18 | 42.37197 | -71.01692 | 22 ft | 19 kts | 136° |
| 2026-04-29 02:19 | 42.37126 | -71.01597 | 22 ft | 13 kts | 135° |
| 2026-04-29 02:19 | 42.37064 | -71.01513 | 22 ft | 12 kts | 135° |
| 2026-04-29 02:19 | 42.37004 | -71.01434 | 22 ft | 12 kts | 136° |
| 2026-04-29 02:19 | 42.36949 | -71.01359 | 24 ft | 11 kts | 134° |
| 2026-04-29 02:20 | 42.36896 | -71.01289 | 22 ft | 10 kts | 137° |
| 2026-04-29 02:20 | 42.36846 | -71.01223 | 24 ft | 10 kts | 136° |
| 2026-04-29 02:20 | 42.36800 | -71.01164 | 22 ft | 9 kts | 141° |
| 2026-04-29 02:20 | 42.36752 | -71.01141 | 22 ft | 6 kts | 178° |
| 2026-04-29 02:21 | 42.36712 | -71.01151 | 22 ft | 6 kts | 198° |
| 2026-04-29 02:21 | 42.36674 | -71.01169 | 22 ft | 6 kts | 199° |
| 2026-04-29 02:21 | 42.36631 | -71.01192 | 22 ft | 8 kts | 202° |
| 2026-04-29 02:21 | 42.36566 | -71.01222 | 25 ft | 12 kts | 197° |
| 2026-04-29 02:22 | 42.36482 | -71.01264 | 23 ft | 13 kts | 200° |
| 2026-04-29 02:22 | 42.36386 | -71.01311 | 22 ft | 17 kts | 200° |
| 2026-04-29 02:22 | 42.36282 | -71.01360 | 22 ft | 13 kts | 198° |
| 2026-04-29 02:22 | 42.36196 | -71.01400 | 22 ft | 13 kts | 199° |
| 2026-04-29 02:23 | 42.36113 | -71.01441 | 22 ft | 12 kts | 200° |
| 2026-04-29 02:23 | 42.36034 | -71.01480 | 23 ft | 12 kts | 200° |
| 2026-04-29 02:23 | 42.35958 | -71.01518 | 23 ft | 12 kts | 200° |
| 2026-04-29 02:23 | 42.35879 | -71.01539 | 22 ft | 10 kts | 173° |
| 2026-04-29 02:24 | 42.35827 | -71.01552 | 22 ft | 4 kts | 167° |
| 2026-04-29 02:24 | 42.35803 | -71.01527 | 22 ft | 4 kts | 127° |
| 2026-04-29 02:24 | 42.35782 | -71.01461 | 24 ft | 12 kts | 111° |
| 2026-04-29 02:25 | 42.35718 | -71.01293 | 22 ft | 7 kts | 161° |
| 2026-04-29 02:25 | 42.35681 | -71.01296 | 22 ft | 6 kts | 191° |
| 2026-04-29 02:25 | 42.35632 | -71.01302 | 22 ft | 6 kts | 165° |
| 2026-04-29 02:25 | 42.35599 | -71.01278 | 25 ft | 3 kts | 131° |
| 2026-04-29 02:26 | 42.35594 | -71.01256 | 22 ft | 3 kts | 97° |
| 2026-04-29 02:26 | 42.35598 | -71.01203 | 22 ft | 7 kts | 78° |
| 2026-04-29 02:26 | 42.35660 | -71.00857 | 25 ft | 90 kts | 76° |
| 2026-04-29 02:26 | 42.35864 | -70.99744 | 301 ft | 125 kts | 75° |
| 2026-04-29 02:27 | 42.36037 | -70.98615 | 1131 ft | 129 kts | 78° |
| 2026-04-29 02:27 | 42.36246 | -70.97318 | 1588 ft | 154 kts | 78° |
| 2026-04-29 02:27 | 42.36507 | -70.95791 | 2036 ft | 180 kts | 78° |
| 2026-04-29 02:27 | 42.36814 | -70.94031 | 2466 ft | 205 kts | 77° |
| 2026-04-29 02:28 | 42.37159 | -70.92071 | 2860 ft | 230 kts | 77° |
| 2026-04-29 02:28 | 42.37545 | -70.89868 | 3303 ft | 248 kts | 77° |
| 2026-04-29 02:28 | 42.37945 | -70.87580 | 4103 ft | 252 kts | 77° |
| 2026-04-29 02:28 | 42.38349 | -70.85266 | 4944 ft | 254 kts | 77° |
| 2026-04-29 02:29 | 42.38770 | -70.82913 | 5639 ft | 260 kts | 74° |
| 2026-04-29 02:29 | 42.39666 | -70.80785 | 6219 ft | 265 kts | 46° |
| 2026-04-29 02:29 | 42.41110 | -70.79221 | 6945 ft | 268 kts | 35° |
| 2026-04-29 02:29 | 42.42653 | -70.77778 | 7733 ft | 271 kts | 33° |
| 2026-04-29 02:30 | 42.44207 | -70.76308 | 8547 ft | 275 kts | 35° |
| 2026-04-29 02:30 | 42.45773 | -70.74789 | 9325 ft | 278 kts | 35° |
| 2026-04-29 02:30 | 42.47362 | -70.73253 | 9993 ft | 283 kts | 34° |
| 2026-04-29 02:30 | 42.49142 | -70.72079 | 10462 ft | 288 kts | 18° |
| 2026-04-29 02:31 | 42.51057 | -70.71290 | 11083 ft | 289 kts | 16° |
| 2026-04-29 02:31 | 42.53035 | -70.70478 | 11454 ft | 309 kts | 17° |
| 2026-04-29 02:31 | 42.55167 | -70.69537 | 11628 ft | 336 kts | 18° |
| 2026-04-29 02:31 | 42.57467 | -70.68511 | 11917 ft | 355 kts | 18° |
| 2026-04-29 02:32 | 42.59826 | -70.67485 | 12733 ft | 357 kts | 17° |
| 2026-04-29 02:32 | 42.62213 | -70.66454 | 13436 ft | 363 kts | 17° |
| 2026-04-29 02:32 | 42.64631 | -70.65396 | 14131 ft | 368 kts | 17° |
| 2026-04-29 02:32 | 42.67079 | -70.64327 | 14768 ft | 371 kts | 16° |
| 2026-04-29 02:33 | 42.69618 | -70.63610 | 15325 ft | 375 kts | 7° |
| 2026-04-29 02:33 | 42.72206 | -70.63083 | 16017 ft | 378 kts | 7° |
| 2026-04-29 02:33 | 42.74816 | -70.62521 | 16687 ft | 382 kts | 7° |
| 2026-04-29 02:33 | 42.77416 | -70.61923 | 17834 ft | 368 kts | 7° |
| 2026-04-29 02:34 | 42.79878 | -70.61382 | 19178 ft | 354 kts | 4° |
| 2026-04-29 02:34 | 42.82360 | -70.61292 | 19723 ft | 360 kts | 356° |
| 2026-04-29 02:34 | 42.84874 | -70.61370 | 20476 ft | 363 kts | 355° |
| 2026-04-29 02:34 | 42.87421 | -70.61388 | 21198 ft | 369 kts | 357° |
| 2026-04-29 02:35 | 42.90010 | -70.61351 | 21919 ft | 374 kts | 357° |
| 2026-04-29 02:35 | 42.92627 | -70.61337 | 22639 ft | 379 kts | 356° |
| 2026-04-29 02:35 | 42.95244 | -70.61354 | 23344 ft | 384 kts | 356° |
| 2026-04-29 02:35 | 42.97973 | -70.61363 | 23976 ft | 390 kts | 357° |
| 2026-04-29 02:36 | 43.00666 | -70.61355 | 24555 ft | 394 kts | 357° |
| 2026-04-29 02:36 | 43.03427 | -70.61350 | 25138 ft | 399 kts | 357° |
| 2026-04-29 02:36 | 43.06258 | -70.61353 | 25720 ft | 404 kts | 357° |
| 2026-04-29 02:36 | 43.09076 | -70.61358 | 25905 ft | 420 kts | 357° |
| 2026-04-29 02:37 | 43.12069 | -70.61359 | 25912 ft | 440 kts | 358° |
| 2026-04-29 02:37 | 43.15180 | -70.61355 | 26114 ft | 451 kts | 358° |
| 2026-04-29 02:37 | 43.18370 | -70.61350 | 26705 ft | 454 kts | 358° |
| 2026-04-29 02:37 | 43.21546 | -70.61352 | 27188 ft | 459 kts | 358° |
| 2026-04-29 02:38 | 43.24749 | -70.61355 | 27684 ft | 463 kts | 358° |
| 2026-04-29 02:38 | 43.27984 | -70.61354 | 28174 ft | 467 kts | 358° |
| 2026-04-29 02:38 | 43.31212 | -70.61353 | 28654 ft | 471 kts | 358° |
| 2026-04-29 02:38 | 43.34507 | -70.61345 | 29094 ft | 477 kts | 359° |
| 2026-04-29 02:39 | 43.37876 | -70.60834 | 29492 ft | 484 kts | 10° |
| 2026-04-29 02:39 | 43.41085 | -70.59602 | 29986 ft | 488 kts | 19° |
| 2026-04-29 02:39 | 43.44177 | -70.57625 | 30422 ft | 493 kts | 29° |
| 2026-04-29 02:39 | 43.47011 | -70.54959 | 30837 ft | 495 kts | 39° |
| 2026-04-29 02:40 | 43.49526 | -70.51710 | 31263 ft | 497 kts | 46° |
| 2026-04-29 02:40 | 43.51945 | -70.48330 | 31939 ft | 493 kts | 46° |
| 2026-04-29 02:40 | 43.54354 | -70.44977 | 32550 ft | 492 kts | 46° |
| 2026-04-29 02:40 | 43.56765 | -70.41626 | 33118 ft | 492 kts | 46° |
| 2026-04-29 02:41 | 43.59168 | -70.38270 | 33705 ft | 491 kts | 46° |
| 2026-04-29 02:41 | 43.61519 | -70.34979 | 34274 ft | 491 kts | 46° |